Time;durP1;ratioP1;P1;durP2;ratioP2;P2;SDS_P1;SDS_P2;PMS_P1;PMS_P2;Temp;Humidity;BMP_temperature;BMP_pressure;BME280_temperature;BME280_humidity;BME280_pressure;Samples;Min_cycle;Max_cycle;Signal;HPM_P1;HPM_P2
2021/10/24 00:01:02;;;;;;;24.85;12.60;;;;;;;1.71;95.84;99837.88;5047975;28;20025;-66
2021/10/24 00:03:29;;;;;;;30.05;15.05;;;;;;;1.65;95.72;99837.66;5048319;28;20347;-66
2021/10/24 00:05:55;;;;;;;27.33;12.52;;;;;;;1.65;95.71;99838.53;5063270;28;20328;-66
2021/10/24 00:08:21;;;;;;;34.22;15.05;;;;;;;1.73;96.08;99836.19;5067128;28;20020;-66
2021/10/24 00:10:46;;;;;;;29.52;14.50;;;;;;;1.68;96.12;99838.63;5067221;28;20027;-66
2021/10/24 00:13:12;;;;;;;38.58;19.00;;;;;;;1.61;96.12;99835.78;5067150;28;20031;-66
2021/10/24 00:15:37;;;;;;;39.63;21.27;;;;;;;1.41;96.28;99826.41;5059887;28;20067;-66
2021/10/24 00:18:03;;;;;;;28.40;13.57;;;;;;;1.43;97.27;99824.78;5047206;28;20045;-66
2021/10/24 00:20:28;;;;;;;34.08;14.88;;;;;;;1.49;97.03;99819.81;5047105;28;20017;-66
2021/10/24 00:22:54;;;;;;;26.77;13.25;;;;;;;1.52;97.09;99825.97;5046963;28;20088;-66
2021/10/24 00:25:19;;;;;;;30.30;11.98;;;;;;;1.54;96.69;99828.63;5050055;28;20050;-66
2021/10/24 00:27:44;;;;;;;26.92;13.60;;;;;;;1.63;96.10;99828.94;5067014;28;20045;-66
2021/10/24 00:30:10;;;;;;;25.38;12.40;;;;;;;1.54;95.88;99823.44;5051199;28;20052;-66
2021/10/24 00:32:36;;;;;;;24.10;11.27;;;;;;;1.51;95.77;99818.13;5050142;28;20108;-66
2021/10/24 00:35:02;;;;;;;25.80;12.80;;;;;;;1.59;95.58;99817.56;5066559;28;20029;-66
2021/10/24 00:37:27;;;;;;;20.48;9.40;;;;;;;1.48;95.01;99813.72;5066366;28;20090;-66
2021/10/24 00:39:53;;;;;;;29.17;12.30;;;;;;;1.43;95.67;99809.22;5066094;28;20025;-66
2021/10/24 00:42:18;;;;;;;23.27;11.98;;;;;;;1.34;96.08;99811.47;5066675;28;20098;-66
2021/10/24 00:44:44;;;;;;;29.35;13.90;;;;;;;1.28;96.17;99803.47;5066777;28;20024;-66
2021/10/24 00:47:10;;;;;;;31.08;14.68;;;;;;;1.23;96.63;99805.03;5065262;28;20047;-66
2021/10/24 00:49:36;;;;;;;29.30;14.55;;;;;;;1.17;97.30;99804.81;5066207;28;20017;-66
2021/10/24 00:52:01;;;;;;;28.63;16.33;;;;;;;1.14;97.56;99820.25;5066630;28;20028;-66
2021/10/24 00:54:28;;;;;;;27.23;15.15;;;;;;;1.20;97.66;99821.34;5064443;28;20025;-66
2021/10/24 00:56:55;;;;;;;24.48;13.50;;;;;;;1.28;97.60;99814.75;5062309;28;20124;-66
2021/10/24 00:59:22;;;;;;;26.63;12.85;;;;;;;1.25;96.78;99811.16;5063276;28;20055;-66
2021/10/24 01:01:47;;;;;;;22.75;12.50;;;;;;;1.26;97.26;99806.00;5046555;28;20079;-66
2021/10/24 01:04:13;;;;;;;23.98;12.95;;;;;;;1.33;97.00;99812.31;5045951;28;20021;-66
2021/10/24 01:06:40;;;;;;;25.05;12.57;;;;;;;1.28;96.56;99804.38;5044842;28;20194;-66
2021/10/24 01:09:07;;;;;;;37.13;16.70;;;;;;;1.36;96.37;99802.91;5050086;28;20080;-66
2021/10/24 01:11:33;;;;;;;35.58;18.45;;;;;;;1.26;96.14;99797.34;5064712;28;20028;-66
2021/10/24 01:13:59;;;;;;;27.48;15.73;;;;;;;1.28;96.11;99803.47;5064409;28;20020;-66
2021/10/24 01:16:26;;;;;;;29.48;14.45;;;;;;;1.13;95.61;99798.63;5064289;28;20025;-66
2021/10/24 01:18:52;;;;;;;24.70;10.30;;;;;;;1.02;95.50;99793.88;5064136;28;20386;-66
2021/10/24 01:21:18;;;;;;;18.38;11.10;;;;;;;0.94;96.15;99787.53;5059434;28;20081;-66
2021/10/24 01:23:44;;;;;;;34.55;14.77;;;;;;;0.98;96.99;99794.59;5044526;28;20305;-66
2021/10/24 01:26:10;;;;;;;25.55;12.45;;;;;;;1.10;96.80;99792.44;5045620;28;20017;-66
2021/10/24 01:28:35;;;;;;;24.25;12.77;;;;;;;1.14;95.99;99783.97;5044534;28;20029;-66
2021/10/24 01:31:01;;;;;;;23.92;12.93;;;;;;;1.07;95.50;99789.72;5044501;28;20014;-66
2021/10/24 01:33:27;;;;;;;24.67;12.90;;;;;;;1.04;96.31;99787.06;5044396;28;20032;-66
2021/10/24 01:35:56;;;;;;;22.73;12.40;;;;;;;1.11;95.91;99773.47;5044295;28;20029;-66
2021/10/24 01:38:26;;;;;;;26.60;12.77;;;;;;;1.15;95.65;99778.84;5044349;28;20056;-66
2021/10/24 01:40:52;;;;;;;21.27;12.05;;;;;;;1.11;95.18;99770.88;5048440;28;20025;-66
2021/10/24 01:43:19;;;;;;;18.20;11.00;;;;;;;0.94;95.25;99764.19;5043993;28;20304;-66
2021/10/24 01:45:45;;;;;;;20.48;11.50;;;;;;;1.00;95.71;99759.25;5044149;28;20329;-66
2021/10/24 01:48:11;;;;;;;23.25;12.00;;;;;;;1.06;95.42;99754.28;5044207;28;20062;-66
2021/10/24 01:50:37;;;;;;;22.05;12.05;;;;;;;0.98;95.14;99760.91;5049725;28;20025;-66
2021/10/24 01:53:03;;;;;;;24.30;12.07;;;;;;;0.99;95.04;99744.53;5044152;28;20028;-66
2021/10/24 01:55:31;;;;;;;20.40;10.77;;;;;;;1.00;95.21;99744.59;5061297;28;20067;-66
2021/10/24 01:57:56;;;;;;;23.63;12.18;;;;;;;0.97;94.95;99739.28;5063973;28;20037;-66
2021/10/24 02:00:23;;;;;;;17.38;10.25;;;;;;;0.88;94.89;99738.09;5059996;28;20021;-66
2021/10/24 02:02:48;;;;;;;20.50;11.18;;;;;;;0.98;94.66;99735.84;5042713;28;20025;-66
2021/10/24 02:05:15;;;;;;;21.90;10.45;;;;;;;0.77;94.44;99734.22;5043846;28;20028;-66
2021/10/24 02:07:40;;;;;;;22.25;11.13;;;;;;;0.64;95.00;99732.00;5043873;28;20017;-66
2021/10/24 02:10:10;;;;;;;18.75;9.77;;;;;;;0.76;95.46;99732.44;5058340;28;20017;-66
2021/10/24 02:12:36;;;;;;;16.52;9.45;;;;;;;0.75;95.15;99730.66;5064702;28;20017;-66
2021/10/24 02:15:04;;;;;;;22.10;10.15;;;;;;;0.80;95.72;99723.97;5064275;28;20066;-66
2021/10/24 02:17:29;;;;;;;16.38;9.55;;;;;;;0.74;95.81;99724.63;5056231;28;20044;-66
2021/10/24 02:19:55;;;;;;;18.02;9.02;;;;;;;0.75;96.00;99720.31;5044859;28;20041;-66
2021/10/24 02:22:20;;;;;;;16.75;9.45;;;;;;;0.81;96.14;99720.53;5044894;28;20084;-66
2021/10/24 02:24:46;;;;;;;17.25;9.43;;;;;;;0.79;95.61;99717.03;5052858;28;20024;-66
2021/10/24 02:27:11;;;;;;;21.00;9.20;;;;;;;0.66;95.63;99720.00;5063284;28;20017;-66
2021/10/24 02:29:37;;;;;;;20.95;10.15;;;;;;;0.65;95.85;99719.09;5057082;28;20033;-66
2021/10/24 02:32:03;;;;;;;18.48;9.25;;;;;;;0.70;95.69;99716.69;5060906;28;20088;-66
2021/10/24 02:34:28;;;;;;;15.23;8.25;;;;;;;0.56;95.56;99712.69;5064653;28;20023;-66
2021/10/24 02:36:54;;;;;;;16.80;8.77;;;;;;;0.61;96.10;99705.97;5064542;28;20027;-66
2021/10/24 02:39:19;;;;;;;18.95;7.78;;;;;;;0.60;96.33;99709.41;5064343;28;20016;-66
2021/10/24 02:41:45;;;;;;;21.85;10.30;;;;;;;0.54;96.83;99714.34;5064511;28;20029;-66
2021/10/24 02:44:10;;;;;;;18.98;8.95;;;;;;;0.42;96.72;99706.13;5064497;28;20028;-66
2021/10/24 02:46:36;;;;;;;20.75;9.38;;;;;;;0.51;97.24;99706.47;5064226;28;20017;-66
2021/10/24 02:49:01;;;;;;;20.38;8.02;;;;;;;0.42;97.18;99713.91;5065022;28;20021;-66
2021/10/24 02:51:27;;;;;;;15.95;7.65;;;;;;;0.50;97.55;99708.16;5057475;28;20021;-66
2021/10/24 02:53:52;;;;;;;19.35;8.02;;;;;;;0.39;97.31;99704.31;5045053;28;20017;-66
2021/10/24 02:56:17;;;;;;;19.33;8.07;;;;;;;0.52;97.60;99705.63;5048566;28;20060;-66
2021/10/24 02:58:43;;;;;;;14.80;8.25;;;;;;;0.59;97.46;99699.84;5048488;28;20048;-66
2021/10/24 03:01:08;;;;;;;13.27;6.97;;;;;;;0.56;96.81;99697.16;5056986;28;20025;-66
2021/10/24 03:03:33;;;;;;;15.93;7.15;;;;;;;0.59;96.40;99702.44;5068216;28;20020;-66
2021/10/24 03:05:59;;;;;;;14.70;6.70;;;;;;;0.61;95.65;99706.88;5068854;28;20229;-66
2021/10/24 03:08:24;;;;;;;15.57;7.28;;;;;;;0.63;95.45;99704.34;5069012;28;20025;-66
2021/10/24 03:10:50;;;;;;;14.18;6.70;;;;;;;0.64;94.75;99695.72;5066640;28;20012;-66
2021/10/24 03:13:16;;;;;;;16.23;7.45;;;;;;;0.46;94.39;99700.22;5068882;28;20370;-66
2021/10/24 03:15:41;;;;;;;16.08;7.85;;;;;;;0.54;94.60;99698.81;5049816;28;20020;-66
2021/10/24 03:18:07;;;;;;;13.30;6.28;;;;;;;0.53;95.05;99702.25;5049007;28;20245;-66
2021/10/24 03:20:33;;;;;;;17.42;8.20;;;;;;;0.55;94.62;99705.75;5048997;28;20017;-66
2021/10/24 03:22:59;;;;;;;17.13;7.57;;;;;;;0.43;95.23;99692.34;5065583;28;20028;-66
2021/10/24 03:25:25;;;;;;;14.77;7.60;;;;;;;0.51;95.14;99691.81;5058245;28;20021;-66
2021/10/24 03:27:51;;;;;;;16.55;8.65;;;;;;;0.55;94.92;99695.41;5050041;28;20367;-66
2021/10/24 03:30:17;;;;;;;17.10;7.32;;;;;;;0.52;95.68;99696.16;5049183;28;20017;-66
2021/10/24 03:32:42;;;;;;;15.18;7.80;;;;;;;0.62;94.83;99705.16;5049136;28;20092;-66
2021/10/24 03:35:08;;;;;;;16.98;7.72;;;;;;;0.59;94.18;99707.63;5049132;28;20018;-66
2021/10/24 03:37:34;;;;;;;20.95;8.18;;;;;;;0.48;94.35;99703.78;5048942;28;20025;-66
2021/10/24 03:39:59;;;;;;;16.50;7.28;;;;;;;0.46;94.44;99705.41;5048969;28;20021;-66
2021/10/24 03:42:25;;;;;;;16.33;7.00;;;;;;;0.40;94.66;99710.34;5047955;28;20072;-66
2021/10/24 03:44:50;;;;;;;15.13;7.50;;;;;;;0.50;94.38;99704.72;5048919;28;20043;-66
2021/10/24 03:47:15;;;;;;;12.80;7.05;;;;;;;0.36;94.32;99703.31;5049160;28;20356;-66
2021/10/24 03:49:42;;;;;;;15.35;7.65;;;;;;;0.34;95.30;99716.19;5049121;28;20021;-66
2021/10/24 03:52:08;;;;;;;12.60;7.63;;;;;;;0.28;95.52;99715.97;5056357;28;20020;-66
2021/10/24 03:54:33;;;;;;;13.18;7.28;;;;;;;0.30;96.40;99713.44;5058556;28;20048;-66
2021/10/24 03:56:59;;;;;;;13.05;7.25;;;;;;;0.14;96.50;99705.91;5050442;28;20311;-66
2021/10/24 03:59:24;;;;;;;18.63;7.70;;;;;;;0.14;96.96;99704.22;5050394;28;20021;-66
2021/10/24 04:01:49;;;;;;;14.27;7.45;;;;;;;0.22;97.29;99705.38;5060543;28;20225;-66
2021/10/24 04:04:15;;;;;;;11.90;6.82;;;;;;;0.27;96.63;99702.97;5057590;28;20053;-66
2021/10/24 04:06:41;;;;;;;16.40;6.35;;;;;;;0.22;96.50;99704.50;5049103;28;20315;-66
2021/10/24 04:09:06;;;;;;;17.77;7.53;;;;;;;0.14;96.17;99711.06;5049044;28;20064;-66
2021/10/24 04:11:31;;;;;;;14.00;7.30;;;;;;;0.11;96.61;99700.59;5054924;28;20016;-66
2021/10/24 04:13:57;;;;;;;13.98;7.32;;;;;;;0.18;96.77;99700.91;5068392;28;20020;-66
2021/10/24 04:16:22;;;;;;;14.02;6.70;;;;;;;0.31;96.42;99710.03;5068416;28;20013;-66
2021/10/24 04:18:47;;;;;;;16.65;7.50;;;;;;;0.34;95.61;99700.66;5068334;28;20024;-66
2021/10/24 04:21:13;;;;;;;13.25;6.78;;;;;;;0.27;95.01;99705.53;5067326;28;20088;-66
2021/10/24 04:23:38;;;;;;;16.75;6.63;;;;;;;0.29;95.28;99699.63;5051595;28;20021;-66
2021/10/24 04:26:04;;;;;;;23.65;6.57;;;;;;;0.24;94.91;99697.66;5066858;28;20066;-66
2021/10/24 04:28:29;;;;;;;14.40;7.25;;;;;;;0.27;95.10;99698.66;5068019;28;20032;-66
2021/10/24 04:30:55;;;;;;;15.68;7.53;;;;;;;0.30;94.94;99703.06;5068026;28;20020;-66
2021/10/24 04:33:20;;;;;;;15.02;7.53;;;;;;;0.25;95.14;99697.72;5060932;28;20088;-66
2021/10/24 04:35:46;;;;;;;14.45;7.00;;;;;;;0.29;94.50;99693.56;5048096;28;20036;-66
2021/10/24 04:38:12;;;;;;;15.73;7.15;;;;;;;-0.03;93.56;99693.19;5047685;28;20131;-66
2021/10/24 04:40:38;;;;;;;17.70;7.38;;;;;;;0.11;94.33;99695.44;5047881;28;20313;-66
2021/10/24 04:43:04;;;;;;;11.75;6.50;;;;;;;0.17;94.79;99695.66;5047658;28;20048;-66
2021/10/24 04:45:31;;;;;;;11.90;6.88;;;;;;;0.31;94.96;99702.28;5047645;28;20036;-66
2021/10/24 04:47:56;;;;;;;15.68;7.57;;;;;;;0.19;95.24;99694.91;5051163;28;20316;-66
2021/10/24 04:50:22;;;;;;;12.50;6.93;;;;;;;0.03;94.43;99688.25;5067505;28;20059;-66
2021/10/24 04:52:47;;;;;;;13.13;7.32;;;;;;;0.21;94.74;99702.72;5061867;28;20024;-66
2021/10/24 04:55:12;;;;;;;11.93;7.40;;;;;;;0.23;95.26;99695.91;5050775;28;20325;-66
2021/10/24 04:57:38;;;;;;;14.43;6.72;;;;;;;0.01;94.81;99679.53;5047633;28;20017;-66
2021/10/24 05:00:05;;;;;;;22.40;7.50;;;;;;;0.04;96.33;99679.66;5047340;28;20026;-66
2021/10/24 05:02:30;;;;;;;13.00;5.65;;;;;;;0.16;95.94;99678.38;5047726;28;20044;-66
2021/10/24 05:04:56;;;;;;;20.05;7.22;;;;;;;0.15;95.66;99671.44;5047076;28;20029;-66
2021/10/24 05:07:22;;;;;;;16.05;6.35;;;;;;;0.14;95.86;99680.03;5047127;28;20233;-66
2021/10/24 05:09:47;;;;;;;16.30;6.15;;;;;;;0.10;96.09;99680.72;5047829;28;20032;-66
2021/10/24 05:12:13;;;;;;;12.52;6.70;;;;;;;0.17;95.25;99680.13;5047206;28;20033;-66
2021/10/24 05:14:38;;;;;;;13.57;6.45;;;;;;;0.03;95.69;99681.34;5047137;28;20028;-66
2021/10/24 05:17:04;;;;;;;15.63;6.28;;;;;;;0.14;96.20;99680.91;5046230;28;20061;-66
2021/10/24 05:19:29;;;;;;;19.00;7.82;;;;;;;0.14;95.64;99680.91;5049312;28;20029;-66
2021/10/24 05:21:55;;;;;;;13.63;6.32;;;;;;;0.22;95.93;99684.66;5046954;28;20067;-66
2021/10/24 05:24:20;;;;;;;15.77;7.53;;;;;;;0.14;95.88;99685.19;5047134;28;20032;-66
2021/10/24 05:26:46;;;;;;;18.52;7.18;;;;;;;0.08;96.17;99677.19;5046735;28;20032;-66
2021/10/24 05:29:12;;;;;;;14.00;7.00;;;;;;;0.23;96.18;99685.53;5060221;28;20376;-66
2021/10/24 05:31:37;;;;;;;11.55;6.40;;;;;;;0.26;95.99;99685.66;5066677;28;20020;-66
2021/10/24 05:34:03;;;;;;;20.42;6.55;;;;;;;0.29;95.25;99680.59;5064991;28;20021;-66
2021/10/24 05:36:28;;;;;;;12.90;6.40;;;;;;;0.18;95.75;99680.19;5050209;28;20264;-66
2021/10/24 05:38:54;;;;;;;15.43;5.90;;;;;;;0.20;95.49;99672.50;5048596;28;20384;-66
2021/10/24 05:41:19;;;;;;;17.98;6.57;;;;;;;0.20;95.77;99673.38;5046553;28;20032;-66
2021/10/24 05:43:44;;;;;;;13.32;6.43;;;;;;;0.16;95.54;99673.22;5046669;28;20022;-66
2021/10/24 05:46:10;;;;;;;18.75;6.53;;;;;;;0.06;95.56;99671.09;5065598;28;20028;-66
2021/10/24 05:48:36;;;;;;;17.77;7.18;;;;;;;0.17;97.18;99669.78;5066489;28;20020;-66
2021/10/24 05:51:01;;;;;;;14.30;7.10;;;;;;;0.24;97.33;99676.94;5066699;28;20021;-66
2021/10/24 05:53:26;;;;;;;19.65;6.32;;;;;;;0.12;95.14;99671.34;5066576;28;20024;-66
2021/10/24 05:55:52;;;;;;;14.40;6.57;;;;;;;0.09;96.24;99672.06;5067123;28;20028;-66
2021/10/24 05:58:17;;;;;;;17.15;6.80;;;;;;;0.03;96.60;99662.38;5066854;28;20029;-66
2021/10/24 06:00:43;;;;;;;20.10;7.40;;;;;;;0.15;96.23;99671.44;5066984;28;20117;-66
2021/10/24 06:03:08;;;;;;;20.48;6.47;;;;;;;0.05;96.63;99662.44;5066711;28;20052;-66
2021/10/24 06:05:35;;;;;;;15.55;5.82;;;;;;;0.04;95.73;99664.13;5065936;28;20044;-66
2021/10/24 06:08:02;;;;;;;13.63;7.30;;;;;;;-0.05;95.87;99669.00;5046918;28;20086;-66
2021/10/24 06:10:33;;;;;;;17.08;6.97;;;;;;;-0.05;96.31;99669.00;5063092;28;20084;-66
2021/10/24 06:12:59;;;;;;;15.65;6.55;;;;;;;-0.20;95.69;99668.38;5050082;28;20327;-66
2021/10/24 06:15:25;;;;;;;16.48;7.10;;;;;;;-0.11;95.82;99668.75;5046497;28;20025;-66
2021/10/24 06:17:51;;;;;;;24.88;8.40;;;;;;;0.03;96.53;99677.00;5045788;28;20049;-66
2021/10/24 06:20:19;;;;;;;15.27;6.80;;;;;;;0.07;95.52;99680.63;5049136;28;20017;-66
2021/10/24 06:22:45;;;;;;;13.55;6.22;;;;;;;0.15;95.22;99677.50;5050123;28;20320;-66
2021/10/24 06:25:13;;;;;;;11.52;6.85;;;;;;;0.15;95.17;99676.63;5051936;28;20317;-66
2021/10/24 06:27:40;;;;;;;14.80;6.75;;;;;;;0.11;95.43;99680.78;5051790;28;20029;-66
2021/10/24 06:30:09;;;;;;;13.27;6.68;;;;;;;0.24;95.10;99677.84;5066868;28;20021;-66
2021/10/24 06:32:35;;;;;;;17.98;7.93;;;;;;;0.25;94.37;99678.72;5066298;28;20025;-66
2021/10/24 06:35:01;;;;;;;11.13;6.68;;;;;;;0.15;94.67;99672.31;5067515;28;20025;-66
2021/10/24 06:37:36;;;;;;;12.18;6.25;;;;;;;0.31;94.63;99684.16;5048049;28;20313;-66
2021/10/24 06:40:03;;;;;;;19.52;6.78;;;;;;;0.22;94.33;99676.03;5047864;28;20087;-66
2021/10/24 06:42:29;;;;;;;15.13;8.60;;;;;;;0.30;95.45;99678.06;5047634;28;20025;-66
2021/10/24 06:44:54;;;;;;;20.75;9.40;;;;;;;0.27;95.71;99677.06;5055187;28;20066;-66
2021/10/24 06:47:20;;;;;;;22.45;10.63;;;;;;;0.35;96.05;99675.66;5065961;28;20340;-66
2021/10/24 06:49:45;;;;;;;21.90;10.32;;;;;;;0.45;95.77;99670.00;5067538;28;20063;-66
2021/10/24 06:52:10;;;;;;;17.45;8.82;;;;;;;0.54;95.80;99671.19;5061978;28;20319;-66
2021/10/24 06:54:36;;;;;;;19.85;8.15;;;;;;;0.72;94.91;99679.63;5056917;28;20332;-66
2021/10/24 06:57:01;;;;;;;15.82;8.43;;;;;;;0.86;94.54;99678.44;5087570;28;20028;-66
2021/10/24 06:59:27;;;;;;;18.10;8.60;;;;;;;0.79;94.05;99670.38;5069795;28;20020;-66
2021/10/24 07:01:52;;;;;;;27.27;12.05;;;;;;;0.79;94.48;99680.75;5050601;28;20092;-66
2021/10/24 07:04:17;;;;;;;19.45;11.10;;;;;;;0.86;94.84;99681.03;5047293;28;20075;-66
2021/10/24 07:06:43;;;;;;;18.85;9.05;;;;;;;0.98;94.62;99688.34;5047422;28;20088;-66
2021/10/24 07:09:08;;;;;;;16.90;9.27;;;;;;;1.15;94.09;99682.00;5047451;28;20021;-66
2021/10/24 07:11:33;;;;;;;23.48;9.82;;;;;;;1.08;94.07;99680.91;5047410;28;20036;-66
2021/10/24 07:13:59;;;;;;;20.83;9.95;;;;;;;1.12;94.69;99687.09;5049497;28;20032;-67
2021/10/24 07:16:24;;;;;;;26.83;10.23;;;;;;;1.19;94.33;99689.94;5068359;28;20347;-66
2021/10/24 07:18:51;;;;;;;17.73;9.18;;;;;;;1.46;94.19;99684.81;5053186;28;20036;-66
2021/10/24 07:21:16;;;;;;;22.00;10.05;;;;;;;1.51;93.85;99688.41;5048308;28;20174;-67
2021/10/24 07:23:42;;;;;;;20.65;9.20;;;;;;;1.53;94.20;99694.53;5046817;28;20028;-67
2021/10/24 07:26:07;;;;;;;17.90;9.90;;;;;;;1.69;95.22;99683.84;5046813;28;20093;-67
2021/10/24 07:28:32;;;;;;;15.57;8.85;;;;;;;1.97;95.18;99683.88;5063754;28;20021;-67
2021/10/24 07:30:58;;;;;;;17.95;9.30;;;;;;;2.10;94.87;99688.59;5066664;28;20017;-67
2021/10/24 07:33:23;;;;;;;23.02;10.02;;;;;;;2.04;94.59;99689.31;5066169;28;20016;-66
2021/10/24 07:35:49;;;;;;;16.25;9.23;;;;;;;2.15;94.59;99687.91;5066840;28;20309;-66
2021/10/24 07:38:15;;;;;;;16.10;9.05;;;;;;;2.36;95.08;99687.66;5066931;28;20020;-66
2021/10/24 07:40:51;;;;;;;21.08;9.68;;;;;;;2.58;94.72;99689.16;5048259;28;20044;-67
2021/10/24 07:43:21;;;;;;;27.02;10.80;;;;;;;2.61;94.13;99689.25;5051670;28;20026;-67
2021/10/24 07:45:48;;;;;;;22.08;9.65;;;;;;;2.60;94.58;99680.59;5062026;28;20031;-67
2021/10/24 07:48:14;;;;;;;17.40;9.43;;;;;;;2.77;94.61;99692.34;5064267;28;20028;-67
2021/10/24 07:50:40;;;;;;;18.30;9.82;;;;;;;3.03;95.26;99696.53;5066506;28;20062;-66
2021/10/24 07:53:05;;;;;;;19.73;10.23;;;;;;;3.30;94.26;99692.06;5051941;28;20025;-66
2021/10/24 07:55:31;;;;;;;23.90;8.75;;;;;;;3.84;94.20;99688.22;5047014;28;20025;-66
2021/10/24 07:57:57;;;;;;;16.13;9.40;;;;;;;4.30;91.95;99683.22;5047478;28;20025;-66
2021/10/24 08:00:22;;;;;;;25.05;9.52;;;;;;;5.55;88.41;99703.97;5047012;28;20325;-67
2021/10/24 08:02:48;;;;;;;26.13;8.75;;;;;;;6.95;82.26;99700.84;5058888;28;20029;-67
2021/10/24 08:05:14;;;;;;;27.98;10.60;;;;;;;8.09;77.93;99696.72;5065919;28;20317;-66
2021/10/24 08:07:40;;;;;;;19.13;9.15;;;;;;;8.62;75.90;99697.09;5063868;28;20055;-66
2021/10/24 08:10:07;;;;;;;15.43;6.78;;;;;;;9.35;74.24;99706.13;5054768;28;20058;-66
2021/10/24 08:12:33;;;;;;;18.58;7.82;;;;;;;9.08;75.41;99698.19;5055369;28;20316;-66
2021/10/24 08:14:59;;;;;;;14.52;7.30;;;;;;;9.73;74.56;99378.44;5055492;28;20025;-66
2021/10/24 08:17:25;;;;;;;17.25;6.80;;;;;;;10.85;71.19;99382.13;5047219;28;20053;-66
2021/10/24 08:19:50;;;;;;;12.80;6.05;;;;;;;11.73;68.73;99506.97;5050729;28;20051;-66
2021/10/24 08:22:18;;;;;;;15.23;6.22;;;;;;;12.48;65.80;99553.63;5066308;28;20025;-66
2021/10/24 08:24:45;;;;;;;13.95;6.15;;;;;;;13.07;64.04;99535.19;5059392;28;20336;-66
2021/10/24 08:27:10;;;;;;;16.10;6.40;;;;;;;12.87;64.02;99516.09;5046305;28;20064;-66
2021/10/24 08:29:37;;;;;;;15.68;6.70;;;;;;;12.97;62.75;99507.13;5045908;28;20033;-66
2021/10/24 08:32:05;;;;;;;20.02;7.63;;;;;;;13.32;63.17;99505.75;5045919;28;20049;-67
2021/10/24 08:34:31;;;;;;;19.65;8.82;;;;;;;14.14;61.84;99509.50;5046044;28;20021;-67
2021/10/24 08:36:57;;;;;;;17.10;7.47;;;;;;;14.66;58.18;99504.91;5044791;28;20028;-67
2021/10/24 08:39:22;;;;;;;18.02;8.55;;;;;;;14.59;60.29;99507.72;5045874;28;20024;-67
2021/10/24 08:41:50;;;;;;;22.10;7.65;;;;;;;15.12;57.10;99507.38;5050936;28;20029;-67
2021/10/24 08:44:15;;;;;;;23.20;8.63;;;;;;;15.08;58.42;99509.25;5065795;28;20096;-67
2021/10/24 08:46:41;;;;;;;17.80;7.95;;;;;;;15.81;55.41;99507.41;5065578;28;20213;-68
2021/10/24 08:49:09;;;;;;;18.75;7.28;;;;;;;15.96;54.30;99512.34;5065739;28;20024;-67
2021/10/24 08:51:35;;;;;;;25.60;9.15;;;;;;;15.35;53.01;99505.06;5056484;28;20017;-67
2021/10/24 08:54:01;;;;;;;25.05;10.00;;;;;;;15.16;54.43;99509.06;5046682;28;20359;-67
2021/10/24 08:56:29;;;;;;;30.60;12.38;;;;;;;14.85;55.79;99505.38;5051944;28;20020;-67
2021/10/24 08:58:55;;;;;;;15.82;5.65;;;;;;;15.35;53.80;99510.38;5050507;28;20063;-67
2021/10/24 09:01:21;;;;;;;16.65;7.20;;;;;;;15.21;53.88;99504.50;5045417;28;20199;-67
2021/10/24 09:04:15;;;;;;;22.90;8.27;;;;;;;15.42;52.37;99509.34;5045728;28;20020;-67
2021/10/24 09:06:56;;;;;;;14.45;5.20;;;;;;;15.90;51.75;99501.88;5060460;28;20059;-67
2021/10/24 09:09:32;;;;;;;14.68;4.95;;;;;;;16.21;51.93;99498.34;5045246;28;20067;-67
2021/10/24 09:12:04;;;;;;;13.43;5.22;;;;;;;15.41;53.19;99498.75;5045368;28;20029;-67
2021/10/24 09:14:46;;;;;;;20.40;5.30;;;;;;;14.87;54.49;99493.81;5045274;28;20040;-67
2021/10/24 09:17:14;;;;;;;;;;;;;;;15.40;53.73;99494.38;5060115;28;20060;-67
2021/10/24 09:19:42;;;;;;;15.10;4.60;;;;;;;15.60;53.23;99492.94;5064376;28;19984;-67
2021/10/24 09:22:23;;;;;;;14.07;4.82;;;;;;;16.07;53.54;99495.19;5044946;28;20333;-67
2021/10/24 09:25:01;;;;;;;12.27;3.75;;;;;;;16.06;50.94;99490.81;5045098;28;20021;-67
2021/10/24 09:27:27;;;;;;;14.02;4.30;;;;;;;16.12;52.29;99493.28;5044921;28;20029;-67
2021/10/24 09:29:53;;;;;;;10.07;3.78;;;;;;;15.14;51.43;99481.69;5045077;28;20257;-67
2021/10/24 09:32:18;;;;;;;15.48;4.03;;;;;;;15.64;52.51;99484.00;5046126;28;20025;-67
2021/10/24 09:35:00;;;;;;;9.00;3.65;;;;;;;16.04;52.48;99481.16;5044898;28;20021;-67
2021/10/24 09:37:27;;;;;;;13.15;3.67;;;;;;;15.87;51.85;99476.28;5045225;28;20021;-64
2021/10/24 09:39:53;;;;;;;12.80;3.90;;;;;;;15.40;51.97;99487.25;5051108;28;20017;-64
2021/10/24 09:42:19;;;;;;;11.25;3.72;;;;;;;15.25;51.89;99479.66;5053389;28;20028;-64
2021/10/24 09:45:13;;;;;;;9.82;3.50;;;;;;;15.15;51.82;99483.44;5066890;28;20346;-64
2021/10/24 09:47:44;;;;;;;12.50;3.70;;;;;;;14.50;53.29;99471.72;5065493;28;20023;-64
2021/10/24 09:50:29;;;;;;;15.02;3.60;;;;;;;14.75;53.92;99482.63;5065568;28;20209;-64
2021/10/24 09:53:17;;;;;;;10.00;3.65;;;;;;;14.91;52.51;99478.72;5057368;28;20032;-64
2021/10/24 09:55:45;;;;;;;15.82;3.58;;;;;;;14.78;53.40;99478.13;5052708;28;20027;-64
2021/10/24 09:58:12;;;;;;;12.85;3.63;;;;;;;13.95;54.38;99470.19;5047760;28;20036;-63
2021/10/24 10:00:39;;;;;;;8.18;3.25;;;;;;;14.43;54.21;99471.88;5062149;28;20220;-63
2021/10/24 10:03:08;;;;;;;12.55;3.33;;;;;;;14.35;54.61;99468.50;5053024;28;20033;-63
2021/10/24 10:05:35;;;;;;;8.98;3.40;;;;;;;14.60;53.41;99472.38;5044707;28;20026;-64
2021/10/24 10:08:01;;;;;;;14.48;3.78;;;;;;;14.65;53.83;99471.34;5044188;28;20316;-64
2021/10/24 10:10:27;;;;;;;8.90;3.00;;;;;;;14.19;56.06;99469.69;5051029;28;20020;-64
2021/10/24 10:12:59;;;;;;;12.60;3.83;;;;;;;14.28;55.20;99458.94;5049324;28;20029;-64
2021/10/24 10:15:29;;;;;;;6.30;3.10;;;;;;;14.38;55.50;99460.50;5051942;28;20047;-64
2021/10/24 10:18:01;;;;;;;14.88;3.25;;;;;;;14.45;54.74;99462.09;5063856;28;20108;-64
2021/10/24 10:20:28;;;;;;;10.55;3.10;;;;;;;14.32;54.87;99452.69;5051014;28;20074;-65
2021/10/24 10:23:04;;;;;;;13.90;4.00;;;;;;;14.01;55.34;99446.22;5063745;28;20021;-63
2021/10/24 10:25:31;;;;;;;10.15;4.18;;;;;;;14.10;56.27;99451.34;5061057;28;20044;-63
2021/10/24 10:27:57;;;;;;;11.00;3.63;;;;;;;13.66;54.78;99453.97;5062101;28;20017;-63
2021/10/24 10:30:40;;;;;;;20.85;6.95;;;;;;;13.93;54.17;99446.41;5052468;28;20039;-63
2021/10/24 10:33:32;;;;;;;14.32;5.05;;;;;;;13.96;54.88;99443.72;5062473;28;20048;-63
2021/10/24 10:36:00;;;;;;;15.60;3.40;;;;;;;13.33;56.33;99441.38;5056708;28;20025;-63
2021/10/24 10:38:33;;;;;;;8.70;3.20;;;;;;;13.31;56.83;99445.81;5056501;28;20028;-63
2021/10/24 10:40:58;;;;;;;11.95;4.22;;;;;;;13.21;56.74;99450.41;5055815;28;20033;-63
2021/10/24 10:43:24;;;;;;;9.15;3.15;;;;;;;13.44;55.96;99439.44;5058333;28;20067;-63
2021/10/24 10:45:56;;;;;;;7.72;3.08;;;;;;;13.28;56.58;99437.94;5058962;28;20037;-65
2021/10/24 10:48:24;;;;;;;9.77;3.70;;;;;;;13.48;57.02;99438.47;5062040;28;20084;-65
2021/10/24 10:51:00;;;;;;;7.82;2.78;;;;;;;13.66;56.97;99435.47;5060404;28;20021;-65
2021/10/24 10:53:31;;;;;;;12.65;3.97;;;;;;;13.89;56.46;99434.13;5043726;28;20032;-65
2021/10/24 10:56:00;;;;;;;8.48;3.05;;;;;;;14.11;56.65;99429.28;5043654;28;20036;-65
2021/10/24 10:58:49;;;;;;;9.93;2.88;;;;;;;14.15;56.54;99430.97;5043511;28;20272;-65
2021/10/24 11:01:21;;;;;;;8.57;2.80;;;;;;;13.99;55.26;99430.38;5047922;28;20071;-65
2021/10/24 11:03:46;;;;;;;11.05;3.35;;;;;;;13.88;55.30;99429.75;5083483;28;20021;-65
2021/10/24 11:06:38;;;;;;;8.32;2.85;;;;;;;13.80;57.30;99433.44;5074296;28;20018;-65
2021/10/24 11:09:05;;;;;;;10.13;3.92;;;;;;;14.25;55.54;99432.53;5043533;28;20034;-65
2021/10/24 11:11:44;;;;;;;5.38;2.97;;;;;;;14.05;56.34;99424.13;5047396;28;20021;-65
2021/10/24 11:14:15;;;;;;;5.53;2.63;;;;;;;14.39;56.31;99426.03;5063580;28;20024;-65
2021/10/24 11:16:59;;;;;;;11.68;3.08;;;;;;;14.31;56.10;99422.69;5065738;28;20434;-66
2021/10/24 11:19:28;;;;;;;9.30;3.15;;;;;;;14.38;55.89;99402.22;5064031;28;20020;-66
2021/10/24 11:22:11;;;;;;;9.57;2.88;;;;;;;14.23;56.56;99407.84;5056239;28;20097;-66
2021/10/24 11:24:37;;;;;;;10.93;3.55;;;;;;;14.22;55.85;99406.09;5068793;28;20028;-66
2021/10/24 11:27:05;;;;;;;12.82;4.47;;;;;;;14.36;56.78;99414.63;5058955;28;20083;-66
2021/10/24 11:29:32;;;;;;;6.50;2.60;;;;;;;14.76;57.35;99411.06;5047394;28;20100;-66